Time;durP1;ratioP1;P1;durP2;ratioP2;P2;SDS_P1;SDS_P2;PMS_P1;PMS_P2;Temp;Humidity;BMP_temperature;BMP_pressure;BME280_temperature;BME280_humidity;BME280_pressure;Samples;Min_cycle;Max_cycle;Signal;HPM_P1;HPM_P2
2023/03/07 00:02:23;;;;;;;16.15;7.93;;;3.30;99.90;;;;;;5058823;28;20052;-74
2023/03/07 00:04:49;;;;;;;16.02;6.80;;;3.30;99.90;;;;;;5049512;28;20573;-73
2023/03/07 00:07:15;;;;;;;15.80;5.18;;;3.30;99.90;;;;;;5047162;28;20447;-74
2023/03/07 00:09:41;;;;;;;10.63;3.85;;;3.30;99.90;;;;;;5063138;28;20056;-74
2023/03/07 00:12:08;;;;;;;9.10;4.18;;;3.40;99.90;;;;;;5057395;28;20120;-74
2023/03/07 00:14:34;;;;;;;13.38;4.28;;;3.40;99.90;;;;;;5041988;28;20076;-74
2023/03/07 00:16:59;;;;;;;12.85;4.38;;;3.30;99.90;;;;;;5046968;28;20079;-74
2023/03/07 00:19:25;;;;;;;13.68;4.80;;;3.10;99.90;;;;;;5045389;28;20036;-74
2023/03/07 00:21:51;;;;;;;13.45;4.57;;;4.10;99.90;;;;;;5063841;28;20055;-74
2023/03/07 00:24:17;;;;;;;13.52;4.50;;;3.40;99.90;;;;;;5059648;28;20074;-74
2023/03/07 00:26:45;;;;;;;16.60;4.45;;;3.40;99.90;;;;;;5044767;28;20539;-75
2023/03/07 00:29:11;;;;;;;13.63;4.53;;;3.40;99.90;;;;;;5048636;28;20056;-74
2023/03/07 00:31:37;;;;;;;10.85;3.47;;;3.40;99.90;;;;;;5062145;28;20565;-75
2023/03/07 00:34:04;;;;;;;12.27;3.70;;;3.40;99.90;;;;;;5055715;28;20413;-76
2023/03/07 00:36:30;;;;;;;10.82;3.38;;;3.30;99.90;;;;;;5062180;28;20140;-75
2023/03/07 00:38:55;;;;;;;14.80;3.95;;;3.30;99.90;;;;;;5048134;28;20032;-75
2023/03/07 00:41:26;;;;;;;11.88;3.40;;;3.40;99.90;;;;;;5064389;28;20036;-75
2023/03/07 00:43:53;;;;;;;12.23;3.15;;;3.30;99.90;;;;;;5064162;28;20048;-75
2023/03/07 00:46:21;;;;;;;15.43;3.65;;;3.30;99.90;;;;;;5048962;28;20888;-75
2023/03/07 00:48:47;;;;;;;12.65;3.47;;;3.40;99.90;;;;;;5069197;28;20103;-74
2023/03/07 00:51:18;;;;;;;12.93;3.05;;;3.30;99.90;;;;;;5046957;28;20037;-75
2023/03/07 00:53:47;;;;;;;11.70;2.55;;;3.40;99.90;;;;;;5050805;28;20135;-74
2023/03/07 00:56:14;;;;;;;16.33;2.53;;;3.40;99.90;;;;;;5059366;28;20040;-76
2023/03/07 00:58:40;;;;;;;11.25;2.25;;;4.10;99.90;;;;;;5027914;28;20076;-75
2023/03/07 01:01:07;;;;;;;14.45;2.30;;;3.40;99.90;;;;;;5039929;28;20062;-74
2023/03/07 01:03:36;;;;;;;15.68;2.15;;;3.40;99.90;;;;;;5058557;28;20066;-75
2023/03/07 01:06:11;;;;;;;16.35;1.83;;;4.00;99.90;;;;;;5066867;28;20142;-75
2023/03/07 01:08:37;;;;;;;13.15;2.28;;;3.40;99.90;;;;;;5057803;28;20466;-76
2023/03/07 01:11:05;;;;;;;15.98;1.98;;;3.40;99.90;;;;;;5062096;28;20106;-76
2023/03/07 01:13:35;;;;;;;17.80;1.70;;;3.40;99.90;;;;;;5062784;28;20086;-75
2023/03/07 01:16:19;;;;;;;14.50;1.90;;;4.20;99.90;;;;;;5041940;28;20032;-75
2023/03/07 01:18:49;;;;;;;20.20;1.77;;;3.40;99.90;;;;;;5060259;28;20044;-75
2023/03/07 01:21:20;;;;;;;10.50;1.30;;;3.40;99.90;;;;;;5045460;28;20039;-76
2023/03/07 01:23:47;;;;;;;16.15;1.65;;;3.40;99.90;;;;;;5050782;28;20036;-76
2023/03/07 01:26:24;;;;;;;21.17;2.00;;;3.40;99.90;;;;;;5042211;28;20770;-76
2023/03/07 01:28:51;;;;;;;18.98;1.83;;;4.00;99.90;;;;;;5060715;28;20127;-76
2023/03/07 01:31:17;;;;;;;16.95;1.73;;;3.40;99.90;;;;;;5041888;28;20079;-74
2023/03/07 01:33:43;;;;;;;19.48;1.73;;;3.50;99.90;;;;;;5039627;28;20063;-74
2023/03/07 01:36:20;;;;;;;15.32;1.80;;;3.40;99.90;;;;;;5048543;28;20044;-75
2023/03/07 01:38:55;;;;;;;14.63;1.60;;;3.40;99.90;;;;;;5061865;28;20048;-75
2023/03/07 01:41:21;;;;;;;8.95;1.33;;;3.40;99.90;;;;;;5027401;28;20062;-74
2023/03/07 01:43:47;;;;;;;18.27;1.70;;;3.40;99.90;;;;;;5045709;28;20144;-75
2023/03/07 01:46:16;;;;;;;14.82;2.00;;;3.40;99.90;;;;;;5062133;28;20097;-74
2023/03/07 01:48:56;;;;;;;14.23;1.80;;;3.40;99.90;;;;;;5045546;28;20036;-75
2023/03/07 01:51:23;;;;;;;14.55;1.58;;;3.30;99.90;;;;;;5052248;28;20048;-75
2023/03/07 01:53:50;;;;;;;15.07;1.80;;;3.30;99.90;;;;;;5046818;28;20047;-75
2023/03/07 01:56:17;;;;;;;10.00;1.30;;;3.30;99.90;;;;;;5063688;28;20059;-76
2023/03/07 01:58:43;;;;;;;19.80;1.60;;;3.30;99.90;;;;;;5062737;28;20166;-75
2023/03/07 02:01:11;;;;;;;14.20;1.42;;;3.30;99.90;;;;;;5059761;28;20485;-74
2023/03/07 02:03:58;;;;;;;14.70;1.33;;;3.20;99.90;;;;;;5042915;28;20052;-75
2023/03/07 02:06:29;;;;;;;12.73;1.60;;;3.20;99.90;;;;;;5039372;28;20051;-75
2023/03/07 02:08:57;;;;;;;15.70;1.83;;;3.20;99.90;;;;;;5063806;28;20059;-75
2023/03/07 02:11:23;;;;;;;13.77;1.60;;;3.20;99.90;;;;;;5062743;28;20150;-76
2023/03/07 02:13:51;;;;;;;16.13;1.55;;;3.90;99.90;;;;;;5044696;28;20827;-75
2023/03/07 02:16:17;;;;;;;14.48;2.08;;;3.10;99.90;;;;;;5045734;28;20052;-74
2023/03/07 02:18:45;;;;;;;14.65;1.80;;;3.00;99.90;;;;;;5042617;28;20045;-75
2023/03/07 02:21:23;;;;;;;23.75;3.80;;;3.70;99.90;;;;;;5043785;28;20044;-74
2023/03/07 02:24:14;;;;;;;21.00;1.88;;;3.00;99.90;;;;;;5064288;28;20049;-74
2023/03/07 02:26:52;;;;;;;21.52;1.83;;;3.00;99.90;;;;;;5050537;28;20102;-74
2023/03/07 02:29:18;;;;;;;16.35;1.63;;;3.00;99.90;;;;;;5070734;28;20083;-74
2023/03/07 02:31:45;;;;;;;11.60;1.15;;;2.90;99.90;;;;;;5047311;28;20127;-74
2023/03/07 02:34:24;;;;;;;12.15;1.67;;;3.00;99.90;;;;;;5036120;28;20036;-75
2023/03/07 02:37:13;;;;;;;8.73;2.00;;;2.90;99.90;;;;;;5046913;28;20155;-75
2023/03/07 02:39:42;;;;;;;13.40;1.27;;;2.90;99.90;;;;;;5056252;28;20060;-74
2023/03/07 02:42:13;;;;;;;16.40;1.73;;;2.90;99.90;;;;;;5040630;28;20076;-74
2023/03/07 02:44:38;;;;;;;12.88;1.65;;;2.90;99.90;;;;;;5043568;28;20063;-75
2023/03/07 02:47:07;;;;;;;11.15;1.52;;;2.90;99.90;;;;;;5046741;28;20032;-73
2023/03/07 02:49:34;;;;;;;18.60;2.97;;;2.90;99.90;;;;;;5057287;28;20037;-74
2023/03/07 02:52:00;;;;;;;10.85;1.10;;;3.00;99.90;;;;;;5029156;28;20057;-75
2023/03/07 02:54:26;;;;;;;15.05;2.40;;;3.90;99.90;;;;;;5054545;28;20522;-74
2023/03/07 02:56:52;;;;;;;13.30;1.80;;;2.80;99.90;;;;;;5046976;28;20087;-74
2023/03/07 02:59:18;;;;;;;11.95;1.88;;;2.80;99.90;;;;;;5064434;28;20155;-74
2023/03/07 03:01:44;;;;;;;15.40;2.28;;;2.80;99.90;;;;;;5062369;28;20138;-74
2023/03/07 03:04:10;;;;;;;9.20;1.45;;;2.80;99.90;;;;;;5042778;28;20131;-75
2023/03/07 03:06:36;;;;;;;13.35;1.88;;;2.90;99.90;;;;;;5058620;28;20516;-74
2023/03/07 03:09:01;;;;;;;10.32;1.23;;;2.70;99.90;;;;;;5037917;28;20059;-75
2023/03/07 03:11:27;;;;;;;14.57;1.50;;;2.70;99.90;;;;;;5042478;28;20700;-74
2023/03/07 03:13:53;;;;;;;10.25;1.60;;;2.70;99.90;;;;;;5044649;28;20079;-74
2023/03/07 03:16:19;;;;;;;7.35;1.30;;;2.70;99.90;;;;;;5020172;28;20052;-74
2023/03/07 03:18:44;;;;;;;15.15;1.88;;;2.70;99.90;;;;;;5039492;28;20048;-74
2023/03/07 03:21:11;;;;;;;11.52;1.40;;;2.90;99.90;;;;;;5062573;28;20064;-74
2023/03/07 03:23:37;;;;;;;8.52;1.27;;;2.60;99.90;;;;;;5045108;28;20080;-75
2023/03/07 03:26:08;;;;;;;15.57;1.35;;;2.60;99.90;;;;;;5058624;28;20037;-74
2023/03/07 03:28:35;;;;;;;14.52;1.40;;;2.60;99.90;;;;;;5037504;28;20525;-74
2023/03/07 03:31:05;;;;;;;14.95;2.22;;;2.60;99.90;;;;;;5043097;28;20043;-75
2023/03/07 03:33:31;;;;;;;11.82;1.50;;;2.60;99.90;;;;;;5041389;28;20041;-75
2023/03/07 03:35:59;;;;;;;13.52;1.50;;;2.60;99.90;;;;;;5038942;28;20072;-76
2023/03/07 03:38:26;;;;;;;11.55;1.58;;;2.60;99.90;;;;;;5048872;28;20040;-73
2023/03/07 03:40:51;;;;;;;11.70;1.58;;;2.60;99.90;;;;;;5023696;28;20077;-73
2023/03/07 03:43:18;;;;;;;16.48;2.33;;;2.60;99.90;;;;;;5035811;28;20129;-74
2023/03/07 03:45:44;;;;;;;13.05;1.20;;;2.60;99.90;;;;;;5042960;28;20053;-74
2023/03/07 03:48:09;;;;;;;9.13;1.70;;;2.50;99.90;;;;;;5023341;28;20139;-73
2023/03/07 03:50:35;;;;;;;9.45;1.10;;;2.60;99.90;;;;;;5035841;28;20087;-73
2023/03/07 03:53:01;;;;;;;14.80;1.40;;;2.50;99.90;;;;;;5024221;28;20043;-73
2023/03/07 03:55:27;;;;;;;7.63;1.27;;;2.50;99.90;;;;;;5038828;28;20044;-73
2023/03/07 03:57:53;;;;;;;16.33;1.55;;;2.90;99.90;;;;;;5039523;28;20048;-73
2023/03/07 04:00:19;;;;;;;9.93;1.27;;;2.50;99.90;;;;;;5043188;28;20486;-74
2023/03/07 04:02:45;;;;;;;13.80;0.90;;;2.50;99.90;;;;;;5035933;28;20523;-74
2023/03/07 04:05:11;;;;;;;9.07;1.75;;;2.60;99.90;;;;;;5034159;28;20525;-74
2023/03/07 04:07:37;;;;;;;9.45;1.05;;;2.50;99.90;;;;;;5038421;28;20435;-74
2023/03/07 04:10:04;;;;;;;7.15;0.90;;;2.50;99.90;;;;;;5042388;28;20041;-74
2023/03/07 04:12:30;;;;;;;11.55;1.75;;;2.50;99.90;;;;;;5042529;28;20445;-74
2023/03/07 04:14:56;;;;;;;14.50;1.50;;;2.40;99.90;;;;;;5032970;28;20070;-74
2023/03/07 04:17:21;;;;;;;10.30;1.23;;;2.50;99.90;;;;;;5042175;28;20106;-74
2023/03/07 04:19:47;;;;;;;6.32;1.20;;;2.50;99.90;;;;;;5041233;28;20029;-73
2023/03/07 04:22:13;;;;;;;6.15;1.10;;;2.50;99.90;;;;;;5036286;28;20095;-73
2023/03/07 04:24:39;;;;;;;11.55;1.20;;;3.10;99.90;;;;;;5042020;28;20037;-74
2023/03/07 04:27:06;;;;;;;8.75;1.58;;;2.50;99.90;;;;;;5026433;28;20057;-73
2023/03/07 04:29:32;;;;;;;12.70;1.33;;;2.50;99.90;;;;;;5046183;28;20095;-72
2023/03/07 04:31:58;;;;;;;11.80;1.58;;;2.50;99.90;;;;;;5048191;28;20463;-72
2023/03/07 04:34:24;;;;;;;15.05;1.55;;;2.50;99.90;;;;;;5041348;28;20048;-73
2023/03/07 04:36:50;;;;;;;9.07;1.55;;;2.50;99.90;;;;;;5047000;28;20044;-73
2023/03/07 04:39:16;;;;;;;10.75;2.28;;;2.50;99.90;;;;;;5033560;28;20234;-73
2023/03/07 04:41:41;;;;;;;11.10;1.63;;;2.50;99.90;;;;;;5072970;28;20091;-73
2023/03/07 04:44:07;;;;;;;10.63;1.08;;;2.50;99.90;;;;;;5068477;28;20151;-73
2023/03/07 04:46:33;;;;;;;12.10;1.48;;;2.60;99.90;;;;;;5047224;28;20048;-73
2023/03/07 04:48:59;;;;;;;16.35;1.60;;;2.50;99.90;;;;;;5044591;28;20075;-74
2023/03/07 04:51:25;;;;;;;13.98;1.30;;;2.50;99.90;;;;;;5048964;28;20075;-74
2023/03/07 04:53:50;;;;;;;10.60;1.77;;;2.50;99.90;;;;;;5052745;28;20120;-74
2023/03/07 04:56:16;;;;;;;7.28;1.10;;;2.50;99.90;;;;;;5061008;28;20045;-73
2023/03/07 04:58:43;;;;;;;11.18;1.42;;;2.60;99.90;;;;;;5055226;28;20048;-73
2023/03/07 05:01:09;;;;;;;12.88;2.55;;;3.40;99.90;;;;;;5043791;28;20603;-73
2023/03/07 05:03:34;;;;;;;13.48;1.52;;;2.60;99.90;;;;;;5050733;28;20032;-74
2023/03/07 05:06:03;;;;;;;16.15;1.60;;;2.60;99.90;;;;;;5048136;28;20664;-73
2023/03/07 05:08:28;;;;;;;14.55;1.98;;;2.60;99.90;;;;;;5062380;28;22125;-73
2023/03/07 05:10:54;;;;;;;13.48;1.73;;;2.60;99.90;;;;;;5062839;28;20122;-73
2023/03/07 05:13:20;;;;;;;14.80;1.30;;;2.60;99.90;;;;;;5031078;28;20059;-73
2023/03/07 05:15:54;;;;;;;14.07;1.50;;;2.60;99.90;;;;;;5037989;28;20680;-73
2023/03/07 05:18:20;;;;;;;13.57;1.45;;;2.60;99.90;;;;;;5061856;28;20044;-73
2023/03/07 05:20:46;;;;;;;12.80;2.50;;;2.90;99.90;;;;;;5024912;28;20071;-73
2023/03/07 05:23:11;;;;;;;11.68;1.58;;;2.80;99.90;;;;;;5041494;28;20078;-73
2023/03/07 05:25:37;;;;;;;14.95;2.40;;;2.70;99.90;;;;;;5045440;28;20131;-73
2023/03/07 05:28:03;;;;;;;12.70;1.30;;;2.70;99.90;;;;;;5050551;28;20048;-73
2023/03/07 05:30:29;;;;;;;11.20;1.80;;;2.80;99.90;;;;;;5044065;28;20566;-73
2023/03/07 05:32:54;;;;;;;13.90;1.60;;;2.70;99.90;;;;;;5060481;28;20592;-73
2023/03/07 05:35:23;;;;;;;6.72;1.65;;;2.70;99.90;;;;;;5046768;28;20075;-72
2023/03/07 05:37:49;;;;;;;11.57;1.60;;;2.70;99.90;;;;;;5025988;28;20125;-73
2023/03/07 05:40:16;;;;;;;9.73;1.30;;;2.80;99.90;;;;;;5048777;28;20062;-73
2023/03/07 05:42:42;;;;;;;11.27;1.30;;;2.80;99.90;;;;;;5040879;28;20076;-72
2023/03/07 05:45:08;;;;;;;11.95;1.33;;;2.80;99.90;;;;;;5043285;28;20744;-73
2023/03/07 05:47:34;;;;;;;8.10;1.98;;;2.80;99.90;;;;;;5062590;28;20860;-72
2023/03/07 05:50:00;;;;;;;11.50;2.10;;;3.00;99.90;;;;;;5048777;28;20043;-72
2023/03/07 05:52:27;;;;;;;7.60;1.00;;;2.80;99.90;;;;;;5040054;28;20040;-73
2023/03/07 05:54:53;;;;;;;14.45;1.50;;;2.80;99.90;;;;;;5041296;28;20458;-73
2023/03/07 05:57:20;;;;;;;8.52;1.38;;;2.80;99.90;;;;;;5045441;28;20036;-71
2023/03/07 05:59:46;;;;;;;8.10;1.40;;;2.70;99.90;;;;;;5061365;28;20115;-72
2023/03/07 06:02:12;;;;;;;8.23;1.13;;;2.70;99.90;;;;;;5039696;28;20052;-72
2023/03/07 06:04:37;;;;;;;8.95;1.35;;;2.80;99.90;;;;;;5061489;28;20070;-72
2023/03/07 06:07:03;;;;;;;9.45;1.40;;;3.60;99.90;;;;;;5061903;28;20117;-72
2023/03/07 06:09:29;;;;;;;6.35;1.05;;;2.70;99.90;;;;;;5047416;28;20040;-72
2023/03/07 06:11:54;;;;;;;9.57;1.20;;;2.70;99.90;;;;;;5040186;28;20139;-72
2023/03/07 06:14:20;;;;;;;13.48;1.80;;;2.70;99.90;;;;;;5041793;28;20047;-72
2023/03/07 06:16:46;;;;;;;10.43;1.33;;;2.70;99.90;;;;;;5031965;28;20095;-72
2023/03/07 06:19:12;;;;;;;6.47;1.23;;;2.70;99.90;;;;;;5049863;28;20040;-72
2023/03/07 06:21:37;;;;;;;12.10;1.55;;;2.70;99.90;;;;;;5036230;28;20036;-72
2023/03/07 06:24:04;;;;;;;11.02;1.42;;;2.70;99.90;;;;;;5035235;28;20045;-71
2023/03/07 06:26:30;;;;;;;8.50;1.13;;;2.70;99.90;;;;;;5050013;28;20131;-72
2023/03/07 06:28:56;;;;;;;11.10;1.50;;;2.70;99.90;;;;;;5039800;28;20436;-72
2023/03/07 06:31:22;;;;;;;9.02;1.23;;;2.70;99.90;;;;;;5019777;28;20056;-72
2023/03/07 06:33:48;;;;;;;8.75;1.35;;;2.70;99.90;;;;;;5034767;28;20117;-72
2023/03/07 06:36:16;;;;;;;10.68;2.30;;;2.70;99.90;;;;;;5034295;28;20049;-71
2023/03/07 06:38:42;;;;;;;6.70;1.15;;;2.70;99.90;;;;;;5039532;28;20114;-72
2023/03/07 06:41:08;;;;;;;9.93;1.38;;;2.70;99.90;;;;;;5058762;28;20047;-72
2023/03/07 06:43:34;;;;;;;10.90;1.13;;;2.70;99.90;;;;;;5024725;28;20052;-72
2023/03/07 06:46:00;;;;;;;8.80;1.63;;;3.10;99.90;;;;;;5036989;28;20722;-72
2023/03/07 06:48:26;;;;;;;9.57;1.88;;;2.70;99.90;;;;;;5055335;28;20569;-72
2023/03/07 06:50:52;;;;;;;15.85;1.42;;;2.60;99.90;;;;;;5042313;28;20141;-72
2023/03/07 06:53:18;;;;;;;12.73;1.58;;;2.60;99.90;;;;;;5063134;28;20036;-72
2023/03/07 06:55:50;;;;;;;9.80;1.02;;;2.60;99.90;;;;;;5062823;28;20493;-72
2023/03/07 06:58:16;;;;;;;8.35;0.60;;;2.60;99.90;;;;;;5058764;28;20102;-72
2023/03/07 07:00:42;;;;;;;8.85;1.10;;;2.50;99.90;;;;;;5042930;28;20637;-72
2023/03/07 07:03:13;;;;;;;6.72;1.08;;;2.50;99.90;;;;;;5035791;28;20044;-72
2023/03/07 07:05:39;;;;;;;9.73;1.57;;;2.50;99.90;;;;;;5044287;28;20040;-72
2023/03/07 07:08:05;;;;;;;6.97;1.00;;;2.50;99.90;;;;;;5068443;28;20290;-72
2023/03/07 07:10:31;;;;;;;10.63;0.85;;;2.50;99.90;;;;;;5055923;28;20046;-73
2023/03/07 07:12:57;;;;;;;8.52;0.90;;;2.50;99.90;;;;;;5037341;28;20476;-73
2023/03/07 07:15:23;;;;;;;5.90;0.88;;;2.60;99.90;;;;;;5036435;28;20044;-73
2023/03/07 07:17:51;;;;;;;8.50;0.70;;;2.50;99.90;;;;;;5023643;28;20055;-72
2023/03/07 07:20:17;;;;;;;7.75;1.10;;;2.50;99.90;;;;;;5058669;28;20109;-71
2023/03/07 07:22:43;;;;;;;15.38;1.00;;;2.50;99.90;;;;;;5059058;28;20049;-72
2023/03/07 07:25:09;;;;;;;4.35;0.75;;;2.50;99.90;;;;;;5059374;28;20047;-72
2023/03/07 07:27:35;;;;;;;7.40;1.13;;;2.50;99.90;;;;;;5059621;28;20087;-73
2023/03/07 07:30:05;;;;;;;5.55;0.80;;;2.50;99.90;;;;;;5033567;28;20121;-73
2023/03/07 07:32:31;;;;;;;11.63;1.00;;;2.50;99.90;;;;;;5026358;28;20079;-73
2023/03/07 07:34:56;;;;;;;6.13;1.15;;;2.60;99.90;;;;;;5019798;28;20102;-72
2023/03/07 07:37:23;;;;;;;5.05;0.63;;;2.50;99.90;;;;;;5047922;28;20076;-72
2023/03/07 07:39:49;;;;;;;6.80;1.08;;;2.60;99.90;;;;;;5047333;28;20044;-72
2023/03/07 07:42:15;;;;;;;6.18;0.93;;;2.60;99.90;;;;;;5045490;28;20037;-72
2023/03/07 07:44:42;;;;;;;8.50;1.23;;;2.60;99.90;;;;;;5044322;28;20182;-72
2023/03/07 07:47:07;;;;;;;6.45;1.55;;;2.60;99.90;;;;;;5048860;28;20542;-72
2023/03/07 07:49:34;;;;;;;6.90;1.38;;;2.60;99.90;;;;;;5046863;28;20043;-72
2023/03/07 07:52:00;;;;;;;7.50;1.25;;;2.60;99.90;;;;;;5060054;28;20085;-72
2023/03/07 07:54:27;;;;;;;7.60;1.00;;;2.60;99.90;;;;;;5059017;28;20041;-72
2023/03/07 07:56:52;;;;;;;7.80;1.30;;;2.60;99.90;;;;;;5027272;28;20044;-73
2023/03/07 07:59:18;;;;;;;9.18;0.98;;;2.60;99.90;;;;;;5050859;28;20509;-74
2023/03/07 08:01:44;;;;;;;9.60;1.17;;;2.70;99.90;;;;;;5039468;28;20047;-73
2023/03/07 08:04:10;;;;;;;5.80;0.90;;;2.70;99.90;;;;;;5030113;28;20057;-72
2023/03/07 08:06:36;;;;;;;5.53;0.93;;;2.70;99.90;;;;;;5030072;28;20497;-73
2023/03/07 08:09:04;;;;;;;5.82;1.10;;;2.70;99.90;;;;;;5029739;28;20041;-73
2023/03/07 08:11:30;;;;;;;4.25;1.10;;;2.10;99.90;;;;;;5049445;28;20536;-73
2023/03/07 08:13:56;;;;;;;9.48;1.20;;;2.80;99.90;;;;;;5036803;28;20032;-73
2023/03/07 08:16:23;;;;;;;9.55;1.30;;;2.80;99.90;;;;;;5037057;28;20048;-72
2023/03/07 08:18:51;;;;;;;9.60;1.60;;;2.80;99.90;;;;;;5061656;28;20047;-73
2023/03/07 08:21:17;;;;;;;12.02;1.58;;;2.80;99.90;;;;;;5037636;28;20041;-73
2023/03/07 08:23:42;;;;;;;5.43;1.05;;;3.20;99.90;;;;;;5059122;28;20125;-72
2023/03/07 08:26:09;;;;;;;4.40;1.02;;;2.90;99.90;;;;;;5036549;28;20399;-72
2023/03/07 08:28:36;;;;;;;6.80;1.00;;;3.00;99.90;;;;;;5053773;28;20379;-72
2023/03/07 08:31:10;;;;;;;9.90;1.17;;;2.90;99.90;;;;;;5020952;28;20065;-72
2023/03/07 08:33:36;;;;;;;8.20;0.88;;;2.90;99.90;;;;;;5025694;28;20093;-72
2023/03/07 08:36:03;;;;;;;4.97;1.15;;;2.90;99.90;;;;;;5034826;28;20044;-72
2023/03/07 08:38:30;;;;;;;6.03;0.95;;;2.80;99.90;;;;;;5054455;28;20048;-72
2023/03/07 08:41:04;;;;;;;9.15;1.20;;;2.70;99.90;;;;;;5054521;28;20509;-72
2023/03/07 08:43:31;;;;;;;7.88;0.73;;;2.70;99.90;;;;;;5059183;28;20056;-73
2023/03/07 08:45:57;;;;;;;9.93;1.10;;;2.60;99.90;;;;;;5058887;28;20071;-73
2023/03/07 08:48:24;;;;;;;7.00;1.10;;;2.60;99.90;;;;;;5030512;28;20413;-75
2023/03/07 08:50:50;;;;;;;9.25;1.35;;;2.50;99.90;;;;;;5038789;28;20048;-72
2023/03/07 08:53:16;;;;;;;5.80;1.15;;;2.50;99.90;;;;;;5056182;28;20040;-72
2023/03/07 08:55:45;;;;;;;6.28;0.82;;;2.50;99.90;;;;;;5053245;28;20052;-73
2023/03/07 08:58:11;;;;;;;6.07;1.05;;;2.60;99.90;;;;;;5054011;28;20465;-72
2023/03/07 09:00:37;;;;;;;6.03;0.65;;;2.50;99.90;;;;;;5033802;28;20033;-72
2023/03/07 09:03:04;;;;;;;11.57;1.00;;;2.80;99.90;;;;;;5043722;28;20477;-72
2023/03/07 09:05:31;;;;;;;5.72;0.90;;;2.50;99.90;;;;;;5040061;28;20134;-73
2023/03/07 09:07:57;;;;;;;4.88;0.90;;;2.40;99.90;;;;;;5020044;28;20032;-72
2023/03/07 09:10:23;;;;;;;5.10;0.80;;;2.70;99.90;;;;;;5035206;28;20055;-72
2023/03/07 09:12:54;;;;;;;7.38;2.28;;;2.40;99.90;;;;;;5046971;28;20036;-72
2023/03/07 09:15:20;;;;;;;5.38;1.00;;;2.40;99.90;;;;;;5017218;28;20052;-73
2023/03/07 09:17:46;;;;;;;5.63;0.98;;;2.70;99.90;;;;;;5039002;28;20607;-73
2023/03/07 09:20:12;;;;;;;5.82;0.73;;;2.70;99.90;;;;;;5052577;28;20041;-73
2023/03/07 09:22:38;;;;;;;6.88;1.20;;;2.40;99.90;;;;;;5032283;28;20055;-72
2023/03/07 09:25:05;;;;;;;8.73;1.40;;;2.40;99.90;;;;;;5043120;28;20117;-73
2023/03/07 09:27:30;;;;;;;12.77;1.35;;;2.40;99.90;;;;;;5027363;28;20060;-73
2023/03/07 09:29:56;;;;;;;10.55;1.20;;;2.50;99.90;;;;;;5049484;28;20049;-72
2023/03/07 09:32:22;;;;;;;5.68;1.10;;;2.50;99.90;;;;;;5032115;28;20076;-73
2023/03/07 09:34:48;;;;;;;7.55;0.95;;;2.50;99.90;;;;;;5056928;28;20040;-73
2023/03/07 09:37:13;;;;;;;5.47;1.17;;;2.50;99.90;;;;;;5037310;28;20037;-73
2023/03/07 09:39:39;;;;;;;6.75;1.00;;;2.50;99.90;;;;;;5043982;28;20127;-73
2023/03/07 09:42:33;;;;;;;6.63;1.13;;;2.50;99.90;;;;;;5042698;28;20036;-72
2023/03/07 09:45:08;;;;;;;3.30;0.93;;;2.60;99.90;;;;;;5053170;28;20059;-73
2023/03/07 09:47:43;;;;;;;11.25;1.42;;;2.50;99.90;;;;;;5059191;28;20086;-73
2023/03/07 09:50:31;;;;;;;8.90;1.30;;;2.60;99.90;;;;;;5036314;28;20040;-72
2023/03/07 09:53:01;;;;;;;7.55;0.85;;;2.60;99.90;;;;;;5041170;28;20036;-73
2023/03/07 09:55:29;;;;;;;7.70;1.02;;;2.60;99.90;;;;;;5061035;28;20041;-72
2023/03/07 09:58:05;;;;;;;11.25;1.20;;;2.70;99.90;;;;;;5053816;28;20554;-73
2023/03/07 10:00:36;;;;;;;9.55;1.25;;;2.70;99.90;;;;;;5053859;28;20044;-73
2023/03/07 10:03:26;;;;;;;4.60;1.00;;;2.70;99.90;;;;;;5055392;28;20132;-73
2023/03/07 10:05:54;;;;;;;7.22;1.13;;;2.80;99.90;;;;;;5039903;28;20049;-72
2023/03/07 10:08:29;;;;;;;11.68;2.17;;;2.80;99.90;;;;;;5040378;28;20649;-73
2023/03/07 10:11:50;;;;;;;4.22;1.08;;;2.90;99.90;;;;;;5041039;28;20102;-73
2023/03/07 10:15:02;;;;;;;10.98;1.70;;;2.90;99.90;;;;;;5042920;28;20530;-73
2023/03/07 10:17:55;;;;;;;6.10;1.10;;;3.00;99.90;;;;;;5002034;28;20047;-72
2023/03/07 10:20:24;;;;;;;8.40;1.90;;;3.10;99.90;;;;;;5021289;28;20036;-73
2023/03/07 10:23:04;;;;;;;6.57;1.40;;;3.10;99.90;;;;;;5062164;28;20043;-73
2023/03/07 10:26:13;;;;;;;11.63;1.70;;;3.10;99.90;;;;;;5026727;28;20060;-73
2023/03/07 10:28:44;;;;;;;5.35;1.10;;;3.20;99.90;;;;;;5069028;28;20432;-73
2023/03/07 10:31:21;;;;;;;9.73;1.17;;;3.20;99.90;;;;;;5027180;28;20040;-73
2023/03/07 10:33:49;;;;;;;10.45;1.17;;;3.20;99.90;;;;;;5032098;28;20050;-73
2023/03/07 10:36:33;;;;;;;9.68;1.38;;;3.30;99.90;;;;;;5041439;28;20047;-74
2023/03/07 10:39:21;;;;;;;6.63;1.50;;;3.30;99.90;;;;;;5049138;28;20052;-73
2023/03/07 10:41:47;;;;;;;9.95;1.27;;;3.40;99.90;;;;;;5053720;28;20040;-73
2023/03/07 10:44:17;;;;;;;12.88;1.50;;;3.60;99.90;;;;;;5044755;28;20040;-73
2023/03/07 10:46:44;;;;;;;7.70;1.50;;;3.40;99.90;;;;;;5041148;28;20561;-72
2023/03/07 10:49:15;;;;;;;8.93;1.17;;;3.50;99.90;;;;;;5052327;28;20043;-73
2023/03/07 10:51:43;;;;;;;9.95;1.30;;;3.50;99.90;;;;;;5044816;28;20055;-73
2023/03/07 10:54:19;;;;;;;11.38;1.55;;;3.50;99.90;;;;;;5065509;28;20450;-72
2023/03/07 10:57:15;;;;;;;15.13;1.40;;;3.50;99.90;;;;;;5057269;28;20059;-73
2023/03/07 10:59:47;;;;;;;19.27;1.70;;;3.60;99.90;;;;;;5054854;28;20049;-73
2023/03/07 11:02:30;;;;;;;;;;;3.60;99.90;;;;;;5024449;28;20467;-73
2023/03/07 11:04:56;;;;;;;10.40;1.75;;;3.60;99.90;;;;;;5064254;28;19928;-73
2023/03/07 11:07:31;;;;;;;15.13;1.52;;;3.60;99.90;;;;;;5048775;28;20068;-73
2023/03/07 11:09:58;;;;;;;7.85;1.40;;;3.70;99.90;;;;;;5042644;28;20132;-73
2023/03/07 11:12:27;;;;;;;8.25;1.23;;;3.80;99.90;;;;;;5027216;28;20500;-73
2023/03/07 11:14:56;;;;;;;10.52;1.90;;;3.80;99.90;;;;;;5068427;28;20151;-73
2023/03/07 11:17:26;;;;;;;9.25;1.58;;;3.80;99.90;;;;;;5040875;28;20051;-73
2023/03/07 11:19:56;;;;;;;12.23;1.55;;;4.00;99.90;;;;;;5047662;28;20493;-73
2023/03/07 11:22:40;;;;;;;6.30;1.15;;;3.90;99.90;;;;;;5049570;28;20156;-73
2023/03/07 11:25:19;;;;;;;11.80;1.52;;;3.90;99.90;;;;;;5066936;28;20041;-75
2023/03/07 11:27:45;;;;;;;8.20;1.48;;;3.90;99.90;;;;;;5042953;28;20059;-73
2023/03/07 11:30:21;;;;;;;7.80;1.20;;;4.20;99.90;;;;;;5068862;28;20048;-73
2023/03/07 11:33:14;;;;;;;10.65;1.20;;;4.10;99.90;;;;;;5044139;28;20040;-73
2023/03/07 11:36:01;;;;;;;6.68;0.90;;;4.10;99.90;;;;;;5043776;28;20052;-73
2023/03/07 11:38:49;;;;;;;10.32;1.20;;;4.00;99.90;;;;;;5040944;28;20048;-73
2023/03/07 11:41:38;;;;;;;11.65;1.45;;;3.80;99.90;;;;;;5050059;28;20412;-73
2023/03/07 11:44:22;;;;;;;12.32;1.30;;;3.60;99.90;;;;;;5073634;28;20084;-74
2023/03/07 11:47:06;;;;;;;9.85;1.50;;;3.50;99.90;;;;;;5044498;28;20088;-74
2023/03/07 11:49:44;;;;;;;11.15;0.95;;;3.40;99.90;;;;;;5043222;28;20040;-74
2023/03/07 11:52:24;;;;;;;9.88;1.42;;;3.30;99.90;;;;;;5058216;28;20060;-73
2023/03/07 11:54:59;;;;;;;11.88;1.08;;;3.30;99.90;;;;;;5046275;28;20036;-74
2023/03/07 11:58:01;;;;;;;10.57;1.90;;;3.30;99.90;;;;;;5034232;28;20054;-74
2023/03/07 12:00:36;;;;;;;11.00;1.60;;;3.40;99.90;;;;;;5039819;28;20098;-74
2023/03/07 12:03:19;;;;;;;5.88;0.98;;;3.40;99.90;;;;;;5042818;28;20041;-73
2023/03/07 12:05:51;;;;;;;12.70;2.08;;;3.50;99.90;;;;;;5061487;28;20045;-74
2023/03/07 12:08:36;;;;;;;7.13;1.05;;;3.60;99.90;;;;;;5058396;28;20043;-73
2023/03/07 12:11:31;;;;;;;11.93;2.15;;;3.70;99.90;;;;;;5035799;28;20102;-74
2023/03/07 12:14:25;;;;;;;8.65;1.27;;;3.90;99.90;;;;;;5041499;28;20782;-74
2023/03/07 12:17:09;;;;;;;7.07;1.13;;;4.00;99.90;;;;;;5053143;28;20044;-74
2023/03/07 12:20:04;;;;;;;9.40;0.95;;;4.10;99.90;;;;;;5037047;28;20061;-72
2023/03/07 12:22:51;;;;;;;10.50;1.10;;;4.30;99.90;;;;;;5030242;28;20164;-73
2023/03/07 12:25:36;;;;;;;10.13;1.50;;;4.40;99.90;;;;;;5021749;28;20135;-73
2023/03/07 12:28:15;;;;;;;10.95;1.00;;;4.40;99.90;;;;;;5029943;28;20088;-74
2023/03/07 12:30:49;;;;;;;9.35;1.52;;;4.50;99.90;;;;;;5020523;28;20776;-74
2023/03/07 12:33:28;;;;;;;10.00;1.35;;;4.60;99.90;;;;;;5056492;28;20052;-73
2023/03/07 12:36:01;;;;;;;7.47;1.20;;;5.00;99.90;;;;;;5017456;28;20210;-73
2023/03/07 12:38:40;;;;;;;6.43;0.85;;;4.60;99.90;;;;;;5054396;28;20146;-73
2023/03/07 12:41:17;;;;;;;4.63;1.00;;;4.60;99.90;;;;;;5040081;28;20045;-73
2023/03/07 12:43:50;;;;;;;6.63;0.90;;;4.70;99.90;;;;;;5055350;28;20057;-72
2023/03/07 12:46:53;;;;;;;5.93;0.70;;;4.80;99.90;;;;;;5050402;28;20523;-73
2023/03/07 12:49:40;;;;;;;4.13;0.98;;;4.90;99.90;;;;;;5054683;28;20049;-73
2023/03/07 12:52:40;;;;;;;4.68;0.90;;;5.00;99.90;;;;;;5021131;28;20058;-73
2023/03/07 12:55:25;;;;;;;8.00;1.55;;;5.10;99.90;;;;;;5029973;28;20052;-73
2023/03/07 12:58:28;;;;;;;8.25;1.30;;;5.10;99.90;;;;;;5040217;28;20514;-73
2023/03/07 13:01:00;;;;;;;6.30;1.50;;;5.00;99.90;;;;;;5052223;28;20266;-74
2023/03/07 13:03:40;;;;;;;6.43;0.80;;;4.90;99.90;;;;;;5040005;28;20511;-73
2023/03/07 13:06:15;;;;;;;6.32;0.77;;;4.80;99.90;;;;;;5037240;28;20127;-73
2023/03/07 13:08:47;;;;;;;6.68;0.95;;;4.80;99.90;;;;;;5063147;28;20105;-73
2023/03/07 13:11:22;;;;;;;6.32;0.85;;;4.90;99.90;;;;;;5037195;28;20063;-73